createdAt,value
2018-12-19T05:00:26.081Z,95997.75
2018-12-19T05:02:55.601Z,95996.55
2018-12-19T05:05:24.974Z,95996.69
2018-12-19T05:07:54.805Z,96002.47
2018-12-19T05:10:24.139Z,95986.91
2018-12-19T05:12:53.830Z,95988.86
2018-12-19T05:15:23.587Z,95995.30
2018-12-19T05:17:53.184Z,95992.48
2018-12-19T05:20:22.682Z,95988.49
2018-12-19T05:22:52.541Z,95991.37
2018-12-19T05:25:22.091Z,95996.77
2018-12-19T05:27:51.700Z,95998.05
2018-12-19T05:30:21.751Z,95997.09
2018-12-19T05:32:51.308Z,96005.44
2018-12-19T05:35:20.811Z,96005.44
2018-12-19T05:37:50.661Z,96004.23
2018-12-19T05:40:20.225Z,95997.45
2018-12-19T05:42:49.942Z,96001.54
2018-12-19T05:45:20.003Z,96004.77
2018-12-19T05:47:49.875Z,96004.09
2018-12-19T05:50:21.849Z,96010.67
2018-12-19T05:52:51.364Z,96002.97
2018-12-19T05:55:21.079Z,96003.32
2018-12-19T05:57:51.016Z,96014.23
2018-12-19T06:00:20.629Z,96004.73
2018-12-19T06:02:50.179Z,96002.17
2018-12-19T06:05:20.045Z,96009.63
2018-12-19T06:07:49.708Z,96005.89
2018-12-19T06:10:26.192Z,96006.47
2018-12-19T06:12:50.875Z,96011.77
2018-12-19T06:15:20.644Z,96009.85
2018-12-19T06:17:50.495Z,96013.41
2018-12-19T06:20:20.252Z,96017.70
2018-12-19T06:22:49.715Z,96012.34
2018-12-19T06:25:19.590Z,96016.96
2018-12-19T06:27:49.436Z,96022.29
2018-12-19T06:30:19.275Z,96024.17
2018-12-19T06:32:49.111Z,96025.37
2018-12-19T06:35:18.570Z,96025.16
2018-12-19T06:37:48.278Z,96025.15
2018-12-19T06:40:18.134Z,96018.81
2018-12-19T06:42:47.946Z,96022.05
2018-12-19T06:45:17.861Z,96028.51
2018-12-19T06:47:47.891Z,96025.07
2018-12-19T06:50:17.253Z,96027.17
2018-12-19T06:52:46.745Z,96030.39
2018-12-19T06:55:16.393Z,96038.84
2018-12-19T06:57:46.131Z,96039.03
2018-12-19T07:00:15.936Z,96036.50
2018-12-19T07:02:45.536Z,96034.61
2018-12-19T07:05:15.255Z,96037.12
2018-12-19T07:07:44.945Z,96045.81
2018-12-19T07:10:14.955Z,96049.55
2018-12-19T07:12:44.443Z,96053.47
2018-12-19T07:15:14.148Z,96055.56
2018-12-19T07:17:44.139Z,96059.20
2018-12-19T07:20:13.704Z,96058.42
2018-12-19T07:22:43.292Z,96066.46
2018-12-19T07:25:13.263Z,96063.61
2018-12-19T07:27:42.897Z,96063.73
2018-12-19T07:30:12.524Z,96072.13
2018-12-19T07:32:42.212Z,96073.09
2018-12-19T07:35:12.084Z,96078.45
2018-12-19T07:37:41.691Z,96086.55
2018-12-19T07:40:11.715Z,96086.75
2018-12-19T07:42:41.297Z,96094.05
2018-12-19T07:45:10.934Z,96093.83
2018-12-19T07:47:40.837Z,96092.96
2018-12-19T07:50:10.503Z,96098.45
2018-12-19T07:52:40.137Z,96102.91
2018-12-19T07:55:09.379Z,96101.88
2018-12-19T07:57:38.881Z,96102.03
2018-12-19T08:00:08.585Z,96102.56
2018-12-19T08:02:38.351Z,96101.22
2018-12-19T08:05:08.250Z,96104.33
2018-12-19T08:07:37.872Z,96102.27
2018-12-19T08:10:08.442Z,96102.98
2018-12-19T08:12:38.102Z,96102.52
2018-12-19T08:15:07.872Z,96103.11
2018-12-19T08:17:37.547Z,96106.61
2018-12-19T08:20:07.254Z,96110.12
2018-12-19T08:22:37.191Z,96106.66
2018-12-19T08:25:07.022Z,96111.48
2018-12-19T08:27:36.733Z,96115.18
2018-12-19T08:30:08.343Z,96117.98
2018-12-19T08:32:38.042Z,96117.28
2018-12-19T08:35:07.770Z,96112.42
2018-12-19T08:37:37.693Z,96119.97
2018-12-19T08:40:07.841Z,96121.18
2018-12-19T08:42:37.299Z,96117.90
2018-12-19T08:45:07.526Z,96127.25
2018-12-19T08:47:37.047Z,96122.42
2018-12-19T08:50:08.799Z,96125.68
2018-12-19T08:52:39.007Z,96127.94
2018-12-19T08:55:08.898Z,96126.36
2018-12-19T08:57:38.356Z,96130.36
2018-12-19T09:00:09.989Z,96121.30
2018-12-19T09:02:41.083Z,96125.33
2018-12-19T09:05:10.643Z,96118.05
2018-12-19T09:07:40.324Z,96113.89
2018-12-19T09:10:10.515Z,96113.89
2018-12-19T09:12:39.945Z,96105.69
2018-12-19T09:15:09.559Z,96103.52
2018-12-19T09:17:39.298Z,96097.67
2018-12-19T09:20:09.544Z,96098.02
2018-12-19T09:22:38.969Z,96090.47
2018-12-19T09:25:08.703Z,96086.62
2018-12-19T09:27:38.325Z,96093.27
2018-12-19T09:30:08.149Z,96081.45
2018-12-19T09:32:37.671Z,96086.86
2018-12-19T09:35:07.466Z,96075.44
2018-12-19T09:37:37.220Z,96075.93
2018-12-19T09:40:06.949Z,96073.16
2018-12-19T09:42:36.374Z,96070.77
2018-12-19T09:45:06.330Z,96065.34
2018-12-19T09:47:36.062Z,96073.08
2018-12-19T09:50:05.997Z,96042.16
2018-12-19T09:52:35.932Z,96068.08
2018-12-19T09:55:05.802Z,96052.13
2018-12-19T09:57:35.596Z,96043.73
2018-12-19T10:00:06.592Z,96042.31
2018-12-19T10:02:36.391Z,96046.77
2018-12-19T10:05:06.251Z,96044.09
2018-12-19T10:07:35.999Z,96038.83
2018-12-19T10:10:05.905Z,96037.81
2018-12-19T10:12:35.994Z,96029.25
2018-12-19T10:15:05.884Z,96016.84
2018-12-19T10:17:40.959Z,96022.52
2018-12-19T10:20:06.463Z,96017.07
2018-12-19T10:22:36.321Z,96016.20
2018-12-19T10:25:11.930Z,96013.67
2018-12-19T10:27:41.893Z,96008.00
2018-12-19T10:30:13.090Z,96006.92
2018-12-19T10:32:42.672Z,96006.77
2018-12-19T10:35:13.142Z,96000.11
2018-12-19T10:37:42.740Z,96006.73
2018-12-19T10:40:13.097Z,95999.48
2018-12-19T10:42:43.604Z,95999.20
2018-12-19T10:45:13.215Z,95988.61
2018-12-19T10:47:42.771Z,95982.97
2018-12-19T10:50:12.845Z,95983.65
2018-12-19T10:52:42.552Z,95988.45
2018-12-19T10:55:12.044Z,95982.45
2018-12-19T10:57:42.047Z,95975.27
2018-12-19T11:00:18.600Z,95970.92
2018-12-19T11:02:48.442Z,95972.87
2018-12-19T11:05:18.151Z,95966.05
2018-12-19T11:07:47.656Z,95968.87
2018-12-19T11:10:17.396Z,95960.89
2018-12-19T11:12:47.050Z,95959.71
2018-12-19T11:15:16.667Z,95957.45
2018-12-19T11:17:46.503Z,95959.55
2018-12-19T11:20:17.161Z,95952.27
2018-12-19T11:22:46.893Z,95949.24
2018-12-19T11:25:16.551Z,95956.98
2018-12-19T11:27:46.243Z,95946.27
2018-12-19T11:30:15.989Z,95951.20
2018-12-19T11:32:45.697Z,95950.34
2018-12-19T11:35:15.161Z,95943.05
2018-12-19T11:37:45.011Z,95938.42
2018-12-19T11:40:14.543Z,95928.02
2018-12-19T11:42:44.205Z,95937.84
2018-12-19T11:45:14.149Z,95939.14
2018-12-19T11:47:43.870Z,95932.08
2018-12-19T11:50:13.736Z,95937.89
2018-12-19T11:52:43.691Z,95943.94
2018-12-19T11:55:13.296Z,95944.22
2018-12-19T11:57:42.914Z,95934.47
2018-12-19T12:00:13.124Z,95931.25
2018-12-19T12:02:42.598Z,95933.23
2018-12-19T12:05:12.172Z,95928.89
2018-12-19T12:07:42.255Z,95938.50
2018-12-19T12:10:11.862Z,95930.80
2018-12-19T12:12:41.571Z,95939.91
2018-12-19T12:15:11.596Z,95932.13
2018-12-19T12:17:41.257Z,95931.10
2018-12-19T12:20:10.859Z,95936.25
2018-12-19T12:22:41.224Z,95935.77
2018-12-19T12:25:10.662Z,95937.42
2018-12-19T12:27:40.206Z,95930.40
2018-12-19T12:30:09.881Z,95931.63
2018-12-19T12:32:39.640Z,95930.83
2018-12-19T12:35:09.448Z,95916.42
2018-12-19T12:37:38.942Z,95914.74
2018-12-19T12:40:09.254Z,95910.97
2018-12-19T12:42:38.794Z,95906.00
2018-12-19T12:45:08.556Z,95908.05
2018-12-19T12:47:38.256Z,95906.08
2018-12-19T12:50:07.892Z,95904.83
2018-12-19T12:52:37.654Z,95904.86
2018-12-19T12:55:07.292Z,95912.55
2018-12-19T12:57:37.162Z,95900.84
2018-12-19T13:00:07.634Z,95906.53
2018-12-19T13:02:37.183Z,95899.19
2018-12-19T13:05:07.030Z,95892.41
2018-12-19T13:07:36.619Z,95892.05
2018-12-19T13:10:07.162Z,95892.86
2018-12-19T13:12:36.979Z,95901.63
2018-12-19T13:15:07.300Z,95893.32
2018-12-19T13:17:37.014Z,95899.55
2018-12-19T13:20:07.424Z,95912.06
2018-12-19T13:22:37.251Z,95908.84
2018-12-19T13:25:06.892Z,95915.09
2018-12-19T13:27:36.882Z,95924.26
2018-12-19T13:30:08.422Z,95922.75
2018-12-19T13:32:38.454Z,95930.16
2018-12-19T13:35:08.168Z,95928.77
2018-12-19T13:37:37.552Z,95926.61
2018-12-19T13:40:07.941Z,95915.87
2018-12-19T13:42:37.685Z,95918.45
2018-12-19T13:45:07.974Z,95927.28
2018-12-19T13:47:37.651Z,95925.84
2018-12-19T13:50:08.391Z,95918.09
2018-12-19T13:52:38.099Z,95920.23
2018-12-19T13:55:07.854Z,95929.24
2018-12-19T13:57:37.295Z,95929.83
2018-12-19T14:00:09.473Z,95936.13
2018-12-19T14:02:38.971Z,95936.08
2018-12-19T14:05:08.960Z,95938.29
2018-12-19T14:07:38.372Z,95930.46
2018-12-19T14:10:08.022Z,95940.88
2018-12-19T14:12:38.149Z,95942.88
2018-12-19T14:15:08.476Z,95950.86
2018-12-19T14:17:37.936Z,95959.14
2018-12-19T14:20:08.182Z,95955.56
2018-12-19T14:22:37.828Z,95956.59
2018-12-19T14:25:07.580Z,95966.75
2018-12-19T14:27:37.384Z,95964.86
2018-12-19T14:30:07.874Z,95972.29
2018-12-19T14:32:37.418Z,95969.41
2018-12-19T14:35:07.477Z,95971.97
2018-12-19T14:37:37.207Z,95974.88
2018-12-19T14:40:07.172Z,95970.71
2018-12-19T14:42:36.903Z,95968.45
2018-12-19T14:45:07.638Z,95971.98
2018-12-19T14:47:37.421Z,95969.42
2018-12-19T14:50:07.254Z,95963.33
2018-12-19T14:52:36.911Z,95966.20
2018-12-19T14:55:06.645Z,95962.82
2018-12-19T14:57:36.381Z,95965.88
2018-12-19T15:00:07.303Z,95966.22
2018-12-19T15:02:36.913Z,95965.23
2018-12-19T15:05:06.353Z,95965.22
2018-12-19T15:07:35.861Z,95972.00
2018-12-19T15:10:06.515Z,95962.02
2018-12-19T15:12:36.444Z,95956.88
2018-12-19T15:15:08.689Z,95966.53
2018-12-19T15:17:38.728Z,95971.66
2018-12-19T15:20:08.517Z,95977.12
2018-12-19T15:22:38.145Z,95966.83
2018-12-19T15:25:08.096Z,95968.27
2018-12-19T15:27:37.919Z,95975.84
2018-12-19T15:30:07.694Z,95979.69
2018-12-19T15:32:38.380Z,95984.48
2018-12-19T15:35:08.315Z,95988.85
2018-12-19T15:37:37.930Z,95990.27
2018-12-19T15:40:07.737Z,95984.65
2018-12-19T15:42:37.388Z,95987.83
2018-12-19T15:45:07.557Z,95991.19
2018-12-19T15:47:37.592Z,95988.27
2018-12-19T15:50:08.133Z,95990.38
2018-12-19T15:52:37.814Z,95987.33
2018-12-19T15:55:07.602Z,95988.73
2018-12-19T15:57:37.187Z,95984.86
2018-12-19T16:00:07.493Z,95989.48
2018-12-19T16:02:37.400Z,95992.31
2018-12-19T16:05:07.057Z,95995.50
2018-12-19T16:07:36.655Z,95990.39
2018-12-19T16:10:06.539Z,96000.37
2018-12-19T16:12:39.199Z,96004.50
2018-12-19T16:15:06.517Z,96010.31
2018-12-19T16:17:36.055Z,96008.22
2018-12-19T16:20:06.847Z,96015.53
2018-12-19T16:22:36.613Z,96011.70
2018-12-19T16:25:07.266Z,96013.15
2018-12-19T16:27:36.806Z,96015.03
2018-12-19T16:30:07.552Z,96020.73
2018-12-19T16:32:36.963Z,96021.30
2018-12-19T16:35:07.080Z,96019.23
2018-12-19T16:37:36.598Z,96015.51
2018-12-19T16:40:06.726Z,96020.93
2018-12-19T16:42:36.388Z,96024.63
2018-12-19T16:45:06.583Z,96028.16
2018-12-19T16:47:36.247Z,96027.41
2018-12-19T16:50:06.600Z,96032.48
2018-12-19T16:52:36.457Z,96033.45
2018-12-19T16:55:06.430Z,96029.09
2018-12-19T16:57:36.061Z,96027.03
2018-12-19T17:00:06.252Z,96036.64
2018-12-19T17:02:36.098Z,96035.11
2018-12-19T17:05:06.275Z,96033.41
2018-12-19T17:07:36.020Z,96037.92
2018-12-19T17:10:06.176Z,96039.52
2018-12-19T17:12:35.891Z,96049.79
2018-12-19T17:15:05.804Z,96044.97
2018-12-19T17:17:35.842Z,96034.42
2018-12-19T17:20:06.182Z,96033.13
2018-12-19T17:22:35.888Z,96034.07
2018-12-19T17:25:05.625Z,96038.55
2018-12-19T17:27:35.291Z,96036.95
2018-12-19T17:30:05.330Z,96043.67
2018-12-19T17:32:35.155Z,96044.22
2018-12-19T17:35:05.439Z,96045.34
2018-12-19T17:37:35.339Z,96038.08
2018-12-19T17:40:05.471Z,96045.55
2018-12-19T17:42:35.023Z,96043.30
2018-12-19T17:45:04.881Z,96037.81
2018-12-19T17:47:34.605Z,96043.60
2018-12-19T17:50:04.696Z,96041.30
2018-12-19T17:52:34.351Z,96041.62
2018-12-19T17:55:03.899Z,96039.32
2018-12-19T17:57:33.330Z,96037.19
2018-12-19T18:00:03.059Z,96035.86
2018-12-19T18:02:32.608Z,96038.39
2018-12-19T18:05:02.154Z,96041.89
2018-12-19T18:07:31.927Z,96043.02
2018-12-19T18:10:01.480Z,96041.61
2018-12-19T18:12:31.112Z,96040.25
2018-12-19T18:15:01.024Z,96044.23
2018-12-19T18:17:30.611Z,96040.64
2018-12-19T18:20:00.344Z,96035.70
2018-12-19T18:22:30.061Z,96030.61
2018-12-19T18:24:59.773Z,96029.95
2018-12-19T18:27:29.369Z,96035.47
2018-12-19T18:29:58.812Z,96027.69
2018-12-19T18:32:28.466Z,96024.99
2018-12-19T18:34:58.332Z,96031.80
2018-12-19T18:37:28.488Z,96042.42
2018-12-19T18:39:58.103Z,96039.53
2018-12-19T18:42:28.059Z,96037.81
2018-12-19T18:44:57.762Z,96040.43
2018-12-19T18:47:27.352Z,96045.41
2018-12-19T18:49:57.355Z,96047.23
2018-12-19T18:52:27.064Z,96044.49
2018-12-19T18:54:56.645Z,96057.16
2018-12-19T18:57:26.628Z,96052.59
2018-12-19T18:59:56.230Z,96045.95
2018-12-19T19:02:26.584Z,96045.03
2018-12-19T19:04:56.531Z,96046.63
2018-12-19T19:07:26.261Z,96054.00
2018-12-19T19:09:56.064Z,96056.23
2018-12-19T19:12:26.676Z,96052.28
2018-12-19T19:14:56.432Z,96056.34
2018-12-19T19:17:26.156Z,96056.22
2018-12-19T19:19:55.971Z,96055.72
2018-12-19T19:22:25.681Z,96052.37
2018-12-19T19:24:55.419Z,96050.64
2018-12-19T19:27:26.865Z,96060.64
2018-12-19T19:29:56.543Z,96064.31
2018-12-19T19:32:26.095Z,96060.37
2018-12-19T19:34:56.490Z,96062.27
2018-12-19T19:37:26.172Z,96072.19
2018-12-19T19:39:55.896Z,96070.05
2018-12-19T19:42:25.662Z,96065.42
2018-12-19T19:44:55.259Z,96061.36
2018-12-19T19:47:24.812Z,96064.07
2018-12-19T19:49:54.474Z,96064.44
2018-12-19T19:52:24.214Z,96066.88
2018-12-19T19:54:53.903Z,96072.33
2018-12-19T19:57:23.781Z,96069.00
2018-12-19T19:59:53.240Z,96071.77
2018-12-19T20:02:22.759Z,96069.16
2018-12-19T20:04:52.304Z,96076.42
2018-12-19T20:07:21.919Z,96078.49
2018-12-19T20:09:51.686Z,96086.89
2018-12-19T20:12:21.572Z,96085.44
2018-12-19T20:14:51.116Z,96083.81
2018-12-19T20:17:26.582Z,96089.71
2018-12-19T20:19:56.081Z,96080.79
2018-12-19T20:22:26.472Z,96086.67
2018-12-19T20:24:56.345Z,96086.38
2018-12-19T20:27:25.699Z,96090.89
2018-12-19T20:29:55.424Z,96085.00
2018-12-19T20:32:24.792Z,96078.20
2018-12-19T20:34:54.442Z,96082.28
2018-12-19T20:37:23.930Z,96081.99
2018-12-19T20:39:54.034Z,96084.75
2018-12-19T20:42:23.546Z,96082.03
2018-12-19T20:44:53.357Z,96094.27
2018-12-19T20:47:29.210Z,96091.47
2018-12-19T20:49:59.079Z,96077.16
2018-12-19T20:52:28.472Z,96080.55
2018-12-19T20:54:57.917Z,96087.58
2018-12-19T20:57:27.375Z,96067.17
2018-12-19T20:59:57.108Z,96096.83
2018-12-19T21:02:26.900Z,96098.45
2018-12-19T21:04:56.465Z,96087.42
2018-12-19T21:07:26.128Z,96093.89
2018-12-19T21:09:55.623Z,96095.27
2018-12-19T21:12:24.968Z,96090.20
2018-12-19T21:14:54.617Z,96089.58
2018-12-19T21:17:29.570Z,96098.55
2018-12-19T21:19:58.923Z,96099.73
2018-12-19T21:22:28.556Z,96103.12
2018-12-19T21:24:58.588Z,96100.55
2018-12-19T21:27:28.169Z,96101.13
2018-12-19T21:29:57.688Z,96096.91
2018-12-19T21:32:27.496Z,96090.09
2018-12-19T21:34:57.000Z,96089.05
2018-12-19T21:37:26.437Z,96091.57
2018-12-19T21:39:56.181Z,96086.76
2018-12-19T21:42:27.203Z,96091.26
2018-12-19T21:44:56.939Z,96097.90
2018-12-19T21:47:26.415Z,96068.76
2018-12-19T21:49:56.082Z,96085.31
2018-12-19T21:52:27.572Z,96084.30
2018-12-19T21:54:57.695Z,96080.88
2018-12-19T21:57:27.431Z,96086.95
2018-12-19T21:59:57.324Z,96080.41
2018-12-19T22:02:27.444Z,96080.80
2018-12-19T22:04:57.005Z,96083.22
2018-12-19T22:07:28.105Z,96078.96
2018-12-19T22:09:57.749Z,96075.73
2018-12-19T22:12:27.473Z,96067.13
2018-12-19T22:14:57.312Z,96072.84
2018-12-19T22:17:32.143Z,96076.03
2018-12-19T22:20:01.746Z,96077.75
2018-12-19T22:22:31.467Z,96071.52
2018-12-19T22:25:01.038Z,96073.22
2018-12-19T22:27:30.904Z,96066.39
2018-12-19T22:30:00.607Z,96069.59
2018-12-19T22:32:30.082Z,96064.64
2018-12-19T22:35:00.092Z,96080.31
2018-12-19T22:37:29.884Z,96086.73
2018-12-19T22:39:59.424Z,96083.06
2018-12-19T22:42:29.059Z,96085.19
2018-12-19T22:44:58.723Z,96077.14
2018-12-19T22:47:28.463Z,96081.59
2018-12-19T22:49:58.354Z,96080.58
2018-12-19T22:52:28.076Z,96071.77
2018-12-19T22:54:57.552Z,96074.62
2018-12-19T22:57:27.278Z,96069.95
2018-12-19T22:59:56.980Z,96067.58
2018-12-19T23:02:31.844Z,96065.98
2018-12-19T23:05:01.562Z,96064.50
2018-12-19T23:07:31.151Z,96062.45
2018-12-19T23:10:00.891Z,96055.99
2018-12-19T23:12:30.549Z,96059.03
2018-12-19T23:15:00.243Z,96064.55
2018-12-19T23:17:35.208Z,96069.78
2018-12-19T23:20:05.216Z,96066.70
2018-12-19T23:22:34.781Z,96073.34
2018-12-19T23:25:04.593Z,96067.08
2018-12-19T23:27:34.308Z,96069.34
2018-12-19T23:30:03.793Z,96061.55
2018-12-19T23:32:33.670Z,96050.94
2018-12-19T23:35:03.287Z,96055.05
2018-12-19T23:37:32.954Z,96065.50
2018-12-19T23:40:02.836Z,96058.42
2018-12-19T23:42:32.579Z,96058.48
2018-12-19T23:45:02.296Z,96055.54
2018-12-19T23:47:32.469Z,96059.34
2018-12-19T23:50:02.046Z,96051.88
2018-12-19T23:52:31.659Z,96048.34
2018-12-19T23:55:01.307Z,96049.41
2018-12-19T23:57:31.487Z,95980.84
